createdAt,value
2023-03-11T00:02:25.122Z,83.71
2023-03-11T00:05:49.065Z,83.69
2023-03-11T00:09:12.965Z,83.65
2023-03-11T00:12:36.756Z,83.83
2023-03-11T00:16:01.890Z,83.90
2023-03-11T00:19:26.569Z,83.98
2023-03-11T00:22:51.359Z,83.94
2023-03-11T00:26:15.616Z,83.96
2023-03-11T00:29:39.524Z,84.01
2023-03-11T00:33:04.434Z,83.49
2023-03-11T00:36:33.761Z,83.67
2023-03-11T00:39:57.809Z,83.74
2023-03-11T00:43:21.824Z,83.77
2023-03-11T00:46:45.650Z,83.79
2023-03-11T00:50:12.396Z,83.78
2023-03-11T00:53:36.238Z,83.93
2023-03-11T00:57:09.036Z,83.97
2023-03-11T01:00:35.171Z,84.05
2023-03-11T01:04:01.917Z,84.06
2023-03-11T01:07:25.795Z,84.19
2023-03-11T01:10:49.810Z,84.36
2023-03-11T01:14:13.704Z,84.39
2023-03-11T01:17:37.575Z,84.32
2023-03-11T01:21:01.541Z,84.50
2023-03-11T01:24:25.429Z,84.85
2023-03-11T01:27:49.281Z,84.99
2023-03-11T01:31:15.778Z,85.03
2023-03-11T01:34:39.810Z,85.09
2023-03-11T01:38:03.697Z,85.10
2023-03-11T01:41:27.853Z,85.40
2023-03-11T01:44:52.325Z,85.39
2023-03-11T01:48:16.252Z,85.31
2023-03-11T01:51:44.018Z,85.56
2023-03-11T01:55:13.960Z,85.78
2023-03-11T01:58:41.095Z,85.79
2023-03-11T02:02:19.617Z,85.64
2023-03-11T02:05:43.889Z,84.90
2023-03-11T02:09:08.868Z,85.44
2023-03-11T02:12:36.804Z,85.72
2023-03-11T02:16:04.137Z,85.79
2023-03-11T02:20:13.714Z,85.77
2023-03-11T02:24:05.505Z,85.73
2023-03-11T02:27:35.115Z,85.82
2023-03-11T02:31:00.258Z,85.86
2023-03-11T02:34:27.428Z,86.00
2023-03-11T02:37:53.813Z,86.16
2023-03-11T02:41:18.135Z,86.18
2023-03-11T02:44:45.281Z,86.20
2023-03-11T02:48:12.085Z,86.24
2023-03-11T02:51:36.128Z,86.36
2023-03-11T02:55:00.273Z,86.36
2023-03-11T02:58:24.385Z,86.30
2023-03-11T03:01:48.916Z,86.36
2023-03-11T03:05:14.129Z,86.56
2023-03-11T03:08:40.133Z,86.68
2023-03-11T03:12:05.562Z,86.68
2023-03-11T03:15:30.608Z,86.69
2023-03-11T03:18:54.724Z,87.07
2023-03-11T03:22:18.891Z,87.05
2023-03-11T03:25:44.656Z,86.92
2023-03-11T03:29:09.104Z,86.96
2023-03-11T03:32:33.459Z,87.11
2023-03-11T03:35:59.198Z,87.34
2023-03-11T03:39:30.388Z,87.14
2023-03-11T03:42:55.369Z,87.23
2023-03-11T03:46:20.018Z,87.33
2023-03-11T03:49:44.806Z,87.30
2023-03-11T03:53:08.719Z,87.17
2023-03-11T03:56:32.978Z,86.89
2023-03-11T03:59:57.889Z,86.91
2023-03-11T04:03:22.002Z,86.89
2023-03-11T04:06:49.960Z,86.93
2023-03-11T04:10:15.771Z,86.71
2023-03-11T04:13:40.111Z,86.53
2023-03-11T04:17:04.601Z,86.63
2023-03-11T04:20:28.938Z,86.31
2023-03-11T04:23:53.206Z,85.89
2023-03-11T04:27:19.852Z,85.94
2023-03-11T04:30:44.507Z,85.89
2023-03-11T04:34:08.620Z,85.94
2023-03-11T04:37:33.945Z,85.90
2023-03-11T04:41:02.365Z,85.82
2023-03-11T04:44:27.445Z,85.79
2023-03-11T04:47:53.071Z,85.71
2023-03-11T04:51:17.401Z,85.63
2023-03-11T04:54:41.848Z,85.60
2023-03-11T04:58:06.142Z,85.46
2023-03-11T05:01:30.557Z,85.37
2023-03-11T05:04:55.989Z,85.16
2023-03-11T05:08:20.135Z,85.05
2023-03-11T05:11:44.221Z,84.98
2023-03-11T05:15:09.348Z,84.87
2023-03-11T05:18:34.439Z,84.61
2023-03-11T05:21:59.455Z,84.55
2023-03-11T05:25:23.946Z,84.22
2023-03-11T05:28:48.225Z,83.98
2023-03-11T05:32:13.745Z,84.42
2023-03-11T05:35:38.396Z,84.64
2023-03-11T05:39:02.959Z,84.79
2023-03-11T05:42:29.056Z,84.92
2023-03-11T05:45:53.563Z,84.88
2023-03-11T05:49:17.649Z,84.87
2023-03-11T05:52:41.964Z,84.68
2023-03-11T05:56:06.723Z,84.42
2023-03-11T05:59:32.574Z,84.30
2023-03-11T06:02:59.449Z,84.58
2023-03-11T06:06:24.009Z,84.76
2023-03-11T06:09:51.652Z,84.89
2023-03-11T06:13:15.972Z,85.04
2023-03-11T06:16:45.403Z,85.14
2023-03-11T06:20:11.127Z,85.07
2023-03-11T06:23:35.184Z,85.05
2023-03-11T06:26:59.424Z,85.09
2023-03-11T06:30:25.576Z,82.70
2023-03-11T06:33:56.777Z,83.09
2023-03-11T06:37:21.698Z,83.85
2023-03-11T06:40:45.693Z,83.72
2023-03-11T06:44:11.875Z,83.82
2023-03-11T06:47:36.241Z,83.49
2023-03-11T06:51:02.271Z,83.68
2023-03-11T06:54:26.588Z,83.41
2023-03-11T06:57:51.023Z,81.96
2023-03-11T07:01:18.565Z,82.64
2023-03-11T07:04:42.818Z,82.19
2023-03-11T07:08:07.035Z,81.56
2023-03-11T07:11:31.561Z,81.51
2023-03-11T07:15:01.447Z,82.08
2023-03-11T07:18:26.690Z,82.46
2023-03-11T07:21:51.338Z,82.24
2023-03-11T07:25:15.232Z,81.80
2023-03-11T07:28:40.741Z,81.65
2023-03-11T07:32:04.957Z,81.91
2023-03-11T07:35:29.016Z,82.05
2023-03-11T07:39:03.141Z,81.31
2023-03-11T07:42:27.998Z,81.15
2023-03-11T07:45:52.409Z,81.41
2023-03-11T07:49:16.667Z,81.78
2023-03-11T07:52:40.583Z,80.45
2023-03-11T07:56:05.672Z,80.55
2023-03-11T07:59:29.937Z,80.10
2023-03-11T08:02:54.081Z,80.84
2023-03-11T08:06:24.208Z,78.12
2023-03-11T08:09:49.546Z,77.46
2023-03-11T08:13:13.391Z,77.30
2023-03-11T08:16:37.338Z,78.62
2023-03-11T08:20:05.222Z,77.59
2023-03-11T08:23:29.280Z,76.66
2023-03-11T08:26:53.170Z,75.82
2023-03-11T08:30:17.357Z,76.14
2023-03-11T08:33:41.937Z,76.62
2023-03-11T08:37:06.008Z,77.67
2023-03-11T08:40:30.271Z,77.88
2023-03-11T08:43:54.411Z,77.89
2023-03-11T08:47:18.428Z,77.92
2023-03-11T08:50:53.819Z,77.82
2023-03-11T08:54:18.651Z,78.47
2023-03-11T08:57:42.711Z,78.25
2023-03-11T09:01:09.223Z,77.77
2023-03-11T09:04:33.498Z,78.70
2023-03-11T09:07:57.433Z,79.10
2023-03-11T09:11:22.860Z,79.34
2023-03-11T09:14:47.281Z,78.55
2023-03-11T09:18:15.766Z,79.28
2023-03-11T09:21:39.941Z,79.47
2023-03-11T09:25:03.840Z,79.84
2023-03-11T09:28:28.846Z,79.94
2023-03-11T09:31:52.909Z,78.44
2023-03-11T09:35:17.167Z,78.32
2023-03-11T09:38:42.239Z,78.74
2023-03-11T09:42:21.129Z,78.68
2023-03-11T09:46:00.807Z,78.96
2023-03-11T09:49:41.881Z,78.42
2023-03-11T09:53:27.842Z,79.14
2023-03-11T09:56:52.071Z,78.50
2023-03-11T10:00:21.494Z,78.89
2023-03-11T10:03:46.594Z,78.86
2023-03-11T10:07:21.926Z,78.75
2023-03-11T10:10:53.699Z,78.89
2023-03-11T10:14:42.954Z,78.76
2023-03-11T10:18:35.375Z,78.83
2023-03-11T10:22:28.541Z,78.76
2023-03-11T10:26:15.202Z,77.27
2023-03-11T10:29:48.257Z,78.43
2023-03-11T10:33:24.323Z,78.39
2023-03-11T10:37:12.978Z,78.58
2023-03-11T10:40:39.637Z,77.50
2023-03-11T10:44:29.452Z,76.93
2023-03-11T10:47:53.842Z,77.25
2023-03-11T10:51:28.114Z,77.92
2023-03-11T10:55:04.423Z,76.79
2023-03-11T10:58:32.169Z,76.50
2023-03-11T11:02:18.515Z,77.42
2023-03-11T11:05:42.508Z,77.65
2023-03-11T11:09:21.087Z,79.75
2023-03-11T11:13:00.272Z,79.16
2023-03-11T11:16:25.851Z,78.61
2023-03-11T11:19:51.594Z,78.86
2023-03-11T11:23:26.537Z,79.73
2023-03-11T11:27:13.009Z,80.12
2023-03-11T11:30:40.328Z,78.45
2023-03-11T11:34:07.174Z,78.35
2023-03-11T11:37:33.821Z,78.19
2023-03-11T11:41:05.655Z,78.20
2023-03-11T11:44:35.452Z,79.08
2023-03-11T11:48:05.103Z,79.50
2023-03-11T11:52:04.214Z,79.20
2023-03-11T11:55:31.686Z,79.20
2023-03-11T11:58:56.116Z,78.19
2023-03-11T12:02:43.211Z,77.85
2023-03-11T12:06:24.347Z,78.46
2023-03-11T12:09:54.706Z,77.11
2023-03-11T12:14:00.330Z,76.39
2023-03-11T12:17:26.083Z,77.34
2023-03-11T12:20:55.970Z,77.48
2023-03-11T12:24:22.973Z,77.60
2023-03-11T12:28:16.942Z,76.78
2023-03-11T12:31:42.675Z,77.11
2023-03-11T12:35:26.425Z,77.51
2023-03-11T12:38:51.768Z,78.50
2023-03-11T12:42:16.730Z,78.47
2023-03-11T12:45:55.788Z,78.79
2023-03-11T12:49:30.645Z,78.72
2023-03-11T12:52:56.317Z,77.91
2023-03-11T12:56:42.058Z,78.16
2023-03-11T13:00:36.953Z,77.74
2023-03-11T13:04:21.509Z,76.90
2023-03-11T13:07:53.073Z,77.74
2023-03-11T13:11:37.780Z,78.31
2023-03-11T13:15:38.254Z,78.14
2023-03-11T13:19:28.200Z,78.97
2023-03-11T13:22:55.127Z,79.23
2023-03-11T13:26:30.468Z,79.04
2023-03-11T13:30:03.212Z,79.28
2023-03-11T13:33:54.700Z,80.00
2023-03-11T13:37:27.668Z,80.13
2023-03-11T13:40:54.835Z,80.35
2023-03-11T13:44:21.591Z,80.71
2023-03-11T13:47:49.620Z,81.54
2023-03-11T13:51:36.716Z,81.70
2023-03-11T13:55:06.479Z,81.80
2023-03-11T13:58:30.455Z,81.77
2023-03-11T14:02:01.016Z,81.23
2023-03-11T14:05:37.292Z,81.06
2023-03-11T14:09:01.288Z,80.57
2023-03-11T14:12:25.745Z,80.10
2023-03-11T14:16:10.038Z,80.95
2023-03-11T14:19:34.129Z,80.84
2023-03-11T14:23:00.525Z,81.16
2023-03-11T14:26:35.062Z,80.94
2023-03-11T14:29:59.129Z,80.88
2023-03-11T14:33:24.119Z,81.71
2023-03-11T14:37:00.025Z,82.87
2023-03-11T14:40:36.720Z,84.09
2023-03-11T14:44:13.352Z,85.28
2023-03-11T14:47:50.531Z,85.25
2023-03-11T14:51:28.223Z,85.07
2023-03-11T14:54:53.959Z,85.17
2023-03-11T14:58:34.597Z,85.58
2023-03-11T15:02:10.688Z,85.89
2023-03-11T15:05:53.270Z,86.18
2023-03-11T15:09:20.859Z,86.39
2023-03-11T15:12:46.149Z,86.42
2023-03-11T15:16:35.997Z,86.46
2023-03-11T15:20:00.597Z,86.67
2023-03-11T15:23:24.786Z,86.93
2023-03-11T15:27:04.271Z,86.92
2023-03-11T15:30:31.328Z,86.53
2023-03-11T15:33:56.848Z,86.42
2023-03-11T15:37:22.928Z,86.61
2023-03-11T15:41:02.340Z,86.68
2023-03-11T15:44:31.187Z,86.68
2023-03-11T15:47:55.197Z,86.88
2023-03-11T15:51:21.522Z,86.95
2023-03-11T15:54:54.754Z,87.06
2023-03-11T15:58:39.544Z,87.08
2023-03-11T16:02:40.467Z,87.08
2023-03-11T16:06:38.515Z,87.26
2023-03-11T16:10:38.475Z,87.55
2023-03-11T16:14:36.503Z,87.81
2023-03-11T16:18:34.408Z,88.05
2023-03-11T16:22:35.501Z,88.04
2023-03-11T16:26:36.454Z,88.08
2023-03-11T16:30:34.470Z,88.26
2023-03-11T16:34:32.447Z,88.38
2023-03-11T16:38:30.448Z,88.52
2023-03-11T16:42:28.429Z,88.50
2023-03-11T16:46:26.505Z,88.37
2023-03-11T16:50:25.389Z,88.44
2023-03-11T16:54:23.454Z,88.29
2023-03-11T16:58:21.423Z,88.34
2023-03-11T17:02:19.395Z,88.50
2023-03-11T17:06:18.470Z,88.41
2023-03-11T17:10:16.419Z,88.41
2023-03-11T17:14:16.816Z,88.36
2023-03-11T17:18:14.590Z,88.48
2023-03-11T17:22:12.540Z,88.10
2023-03-11T17:26:10.450Z,87.25
2023-03-11T17:30:09.375Z,87.23
2023-03-11T17:34:08.378Z,86.64
2023-03-11T17:38:06.425Z,86.57
2023-03-11T17:42:04.460Z,86.44
2023-03-11T17:46:02.395Z,85.71
2023-03-11T17:50:00.364Z,85.76
2023-03-11T17:53:59.350Z,85.34
2023-03-11T17:57:57.333Z,84.72
2023-03-11T18:01:55.363Z,85.08
2023-03-11T18:05:53.343Z,85.69
2023-03-11T18:09:51.376Z,85.80
2023-03-11T18:13:52.330Z,85.77
2023-03-11T18:17:50.403Z,85.77
2023-03-11T18:21:48.386Z,85.81
2023-03-11T18:25:46.292Z,85.02
2023-03-11T18:29:44.431Z,84.97
2023-03-11T18:33:42.325Z,84.99
2023-03-11T18:37:40.402Z,85.13
2023-03-11T18:41:39.305Z,85.36
2023-03-11T18:45:37.360Z,85.18
2023-03-11T18:49:36.255Z,85.03
2023-03-11T18:53:36.258Z,84.48
2023-03-11T18:57:34.369Z,84.12
2023-03-11T19:01:34.433Z,84.04
2023-03-11T19:05:32.302Z,84.17
2023-03-11T19:09:30.379Z,84.39
2023-03-11T19:13:40.701Z,84.48
2023-03-11T19:17:43.344Z,84.58
2023-03-11T19:21:41.327Z,84.92
2023-03-11T19:25:39.214Z,85.39
2023-03-11T19:29:30.437Z,85.25
2023-03-11T19:33:28.197Z,85.46
2023-03-11T19:37:26.176Z,85.50
2023-03-11T19:41:30.448Z,85.28
2023-03-11T19:45:28.184Z,85.05
2023-03-11T19:49:27.193Z,84.07
2023-03-11T19:53:25.190Z,83.62
2023-03-11T19:57:23.226Z,83.90
2023-03-11T20:01:22.187Z,84.05
2023-03-11T20:05:20.165Z,83.61
2023-03-11T20:09:18.311Z,83.83
2023-03-11T20:13:18.329Z,83.69
2023-03-11T20:17:16.190Z,83.37
2023-03-11T20:21:14.343Z,83.19
2023-03-11T20:25:13.186Z,83.34
2023-03-11T20:29:11.158Z,83.60
2023-03-11T20:33:09.324Z,83.72
2023-03-11T20:37:07.153Z,83.77
2023-03-11T20:41:15.303Z,83.22
2023-03-11T20:45:16.280Z,83.01
2023-03-11T20:49:15.198Z,83.00
2023-03-11T20:53:15.202Z,82.87
2023-03-11T20:57:13.105Z,82.98
2023-03-11T21:01:11.116Z,82.66
2023-03-11T21:05:10.129Z,82.32
2023-03-11T21:09:13.226Z,81.95
2023-03-11T21:13:11.166Z,81.53
2023-03-11T21:17:12.183Z,81.77
2023-03-11T21:21:10.075Z,81.54
2023-03-11T21:25:09.212Z,81.51
2023-03-11T21:29:08.037Z,81.30
2023-03-11T21:33:06.233Z,81.48
2023-03-11T21:37:04.098Z,81.28
2023-03-11T21:41:02.080Z,81.43
2023-03-11T21:45:00.084Z,81.36
2023-03-11T21:48:58.146Z,81.01
2023-03-11T21:52:56.010Z,81.08
2023-03-11T21:56:54.097Z,81.27
2023-03-11T22:00:52.054Z,80.98
2023-03-11T22:04:50.083Z,81.06
2023-03-11T22:08:48.950Z,80.92
2023-03-11T22:12:47.010Z,81.04
2023-03-11T22:16:44.968Z,81.31
2023-03-11T22:20:42.987Z,81.81
2023-03-11T22:24:40.921Z,81.56
2023-03-11T22:28:38.988Z,81.92
2023-03-11T22:32:36.936Z,82.11
2023-03-11T22:36:34.986Z,82.11
2023-03-11T22:40:33.908Z,81.79
2023-03-11T22:44:31.918Z,82.21
2023-03-11T22:48:29.896Z,82.56
2023-03-11T22:52:27.905Z,82.42
2023-03-11T22:56:28.894Z,82.41
2023-03-11T23:00:30.907Z,82.35
2023-03-11T23:04:28.944Z,82.61
2023-03-11T23:08:30.856Z,82.84
2023-03-11T23:12:28.850Z,82.82
2023-03-11T23:16:29.988Z,82.86
2023-03-11T23:20:29.855Z,82.95
2023-03-11T23:24:27.881Z,82.73
2023-03-11T23:28:25.832Z,82.91
2023-03-11T23:32:23.890Z,83.15
2023-03-11T23:36:25.930Z,83.22
2023-03-11T23:40:23.887Z,83.30
2023-03-11T23:44:22.811Z,83.12
2023-03-11T23:48:20.828Z,82.88
2023-03-11T23:52:18.808Z,82.85
2023-03-11T23:56:16.893Z,82.91
